Time;durP1;ratioP1;P1;durP2;ratioP2;P2;SDS_P1;SDS_P2;PMS_P1;PMS_P2;Temp;Humidity;BMP_temperature;BMP_pressure;BME280_temperature;BME280_humidity;BME280_pressure;Samples;Min_cycle;Max_cycle;Signal;HPM_P1;HPM_P2
2022/07/02 00:03:37;;;;;;;1.85;1.10;;;22.60;61.90;;;;;;10373659;28;20033;-52
2022/07/02 00:08:37;;;;;;;2.08;1.00;;;22.60;62.50;;;;;;10370222;28;20037;-54
2022/07/02 00:13:38;;;;;;;1.00;0.90;;;22.60;61.80;;;;;;10368018;28;20026;-51
2022/07/02 00:18:39;;;;;;;2.63;1.25;;;22.60;61.90;;;;;;10368124;28;20121;-50
2022/07/02 00:23:40;;;;;;;1.30;1.00;;;22.60;61.90;;;;;;10368027;28;20439;-53
2022/07/02 00:28:46;;;;;;;1.92;1.00;;;22.60;61.80;;;;;;10377974;28;20098;-53
2022/07/02 00:33:49;;;;;;;1.50;1.10;;;22.60;61.70;;;;;;10382087;28;20026;-54
2022/07/02 00:38:50;;;;;;;1.17;1.05;;;22.60;61.70;;;;;;10367888;28;20037;-53
2022/07/02 00:43:52;;;;;;;2.45;1.30;;;22.60;61.80;;;;;;10383668;28;20079;-54
2022/07/02 00:48:53;;;;;;;1.45;0.80;;;22.60;61.80;;;;;;10387709;28;20036;-53
2022/07/02 00:53:54;;;;;;;1.85;1.27;;;22.60;61.70;;;;;;10372212;28;20053;-54
2022/07/02 00:58:55;;;;;;;2.65;1.52;;;22.60;61.70;;;;;;10406282;28;20425;-53
2022/07/02 01:04:00;;;;;;;1.25;1.00;;;22.60;61.70;;;;;;10392612;28;20400;-53
2022/07/02 01:14:22;;;;;;;1.50;1.20;;;22.60;61.70;;;;;;10399717;28;20049;-54
2022/07/02 01:19:24;;;;;;;1.83;1.35;;;22.50;61.60;;;;;;10379526;28;20033;-55
2022/07/02 01:24:25;;;;;;;1.88;1.35;;;22.50;61.50;;;;;;10367195;28;20104;-54
2022/07/02 01:29:25;;;;;;;2.40;1.23;;;22.50;61.60;;;;;;10366074;28;20638;-53
2022/07/02 01:34:27;;;;;;;1.38;1.10;;;22.50;61.70;;;;;;10365883;28;20559;-53
2022/07/02 01:39:28;;;;;;;1.33;1.20;;;22.50;61.50;;;;;;10366929;28;20041;-54
2022/07/02 01:44:29;;;;;;;1.63;1.48;;;22.50;61.40;;;;;;10379567;28;20385;-55
2022/07/02 01:49:30;;;;;;;1.70;1.30;;;22.50;61.30;;;;;;10369012;28;20048;-53
2022/07/02 01:54:32;;;;;;;2.75;1.58;;;22.40;61.30;;;;;;10365641;28;20527;-54
2022/07/02 01:59:34;;;;;;;2.40;1.20;;;22.50;61.40;;;;;;10371881;28;20034;-53
2022/07/02 02:04:35;;;;;;;1.27;1.10;;;22.50;61.30;;;;;;10374590;28;20033;-54
2022/07/02 02:09:36;;;;;;;1.15;1.05;;;22.40;61.20;;;;;;10372989;28;20036;-54
2022/07/02 02:14:37;;;;;;;1.40;1.00;;;22.40;61.10;;;;;;10372616;28;20467;-54
2022/07/02 02:19:37;;;;;;;1.98;1.38;;;22.40;61.10;;;;;;10372908;28;20038;-54
2022/07/02 02:24:38;;;;;;;1.63;1.20;;;22.40;61.20;;;;;;10373908;28;20038;-54
2022/07/02 02:29:39;;;;;;;1.60;1.10;;;22.40;61.00;;;;;;10386184;28;20056;-54
2022/07/02 02:34:40;;;;;;;8.48;1.83;;;22.40;60.90;;;;;;10386572;28;20045;-54
2022/07/02 02:39:41;;;;;;;1.40;1.20;;;22.40;60.90;;;;;;10373611;28;20735;-53
2022/07/02 02:44:41;;;;;;;2.35;1.45;;;22.40;60.90;;;;;;10373652;28;20657;-53
2022/07/02 02:49:42;;;;;;;2.13;1.27;;;22.40;60.90;;;;;;10392512;28;20136;-53
2022/07/02 02:54:43;;;;;;;2.22;1.85;;;22.40;60.90;;;;;;10372662;28;20029;-53
2022/07/02 02:59:44;;;;;;;1.52;1.40;;;22.30;60.60;;;;;;10408211;28;20100;-54
2022/07/02 03:04:44;;;;;;;1.92;1.35;;;22.30;60.70;;;;;;10398619;28;20458;-53
2022/07/02 03:09:45;;;;;;;1.60;1.40;;;22.30;60.70;;;;;;10369502;28;20026;-54
2022/07/02 03:14:46;;;;;;;1.48;1.08;;;22.30;60.50;;;;;;10369842;28;20034;-54
2022/07/02 03:19:46;;;;;;;2.13;1.10;;;22.30;60.60;;;;;;10382750;28;20026;-53
2022/07/02 03:24:47;;;;;;;2.20;1.10;;;22.30;60.50;;;;;;10370864;28;20049;-54
2022/07/02 03:29:48;;;;;;;1.60;1.50;;;22.30;60.50;;;;;;10394603;28;20033;-52
2022/07/02 03:34:48;;;;;;;1.50;1.20;;;22.30;60.40;;;;;;10411837;28;20172;-53
2022/07/02 03:39:49;;;;;;;1.17;1.08;;;22.30;60.40;;;;;;10393767;28;20040;-54
2022/07/02 03:44:50;;;;;;;1.85;1.15;;;22.20;60.40;;;;;;10369586;28;20121;-53
2022/07/02 03:49:51;;;;;;;1.38;1.20;;;22.30;60.40;;;;;;10393248;28;20103;-53
2022/07/02 03:54:51;;;;;;;1.58;1.10;;;22.20;60.40;;;;;;10373682;28;20034;-54
2022/07/02 03:59:52;;;;;;;2.10;1.55;;;22.20;60.40;;;;;;10371323;28;20018;-52
2022/07/02 04:04:53;;;;;;;3.13;1.50;;;22.20;60.50;;;;;;10389204;28;20418;-53
2022/07/02 04:09:54;;;;;;;2.72;1.40;;;22.20;60.60;;;;;;10370382;28;20497;-54
2022/07/02 04:14:54;;;;;;;1.85;1.30;;;22.20;60.60;;;;;;10396762;28;20041;-53
2022/07/02 04:19:55;;;;;;;1.85;1.40;;;22.20;60.60;;;;;;10392163;28;20037;-53
2022/07/02 04:24:56;;;;;;;1.73;1.55;;;22.20;60.60;;;;;;10386674;28;20038;-53
2022/07/02 04:29:57;;;;;;;2.03;1.30;;;22.20;60.70;;;;;;10384314;28;20037;-56
2022/07/02 04:34:58;;;;;;;2.03;1.20;;;22.20;60.70;;;;;;10408769;28;20049;-55
2022/07/02 04:39:58;;;;;;;2.42;1.52;;;22.20;60.70;;;;;;10390148;28;20026;-54
2022/07/02 04:44:59;;;;;;;2.40;1.13;;;22.20;60.70;;;;;;10369032;28;20025;-53
2022/07/02 04:50:00;;;;;;;1.80;1.70;;;22.20;60.60;;;;;;10389682;28;20783;-58
2022/07/02 04:55:01;;;;;;;2.33;1.65;;;22.20;60.60;;;;;;10368316;28;20050;-53
2022/07/02 05:00:02;;;;;;;3.72;1.98;;;22.20;60.70;;;;;;10368193;28;20038;-53
2022/07/02 05:05:03;;;;;;;2.42;2.22;;;22.20;60.70;;;;;;10368256;28;20048;-52
2022/07/02 05:10:04;;;;;;;2.40;1.70;;;22.20;60.70;;;;;;10368612;28;20631;-55
2022/07/02 05:15:05;;;;;;;6.38;3.55;;;22.10;60.90;;;;;;10379035;28;20505;-55
2022/07/02 05:20:07;;;;;;;4.75;2.42;;;22.10;62.00;;;;;;10408798;28;20032;-52
2022/07/02 05:25:08;;;;;;;6.03;2.28;;;22.20;61.80;;;;;;10397885;28;20040;-53
2022/07/02 05:30:09;;;;;;;6.47;2.35;;;22.20;62.20;;;;;;10371312;28;20358;-51
2022/07/02 05:35:10;;;;;;;4.20;2.15;;;22.20;62.50;;;;;;10406893;28;20045;-49
2022/07/02 05:40:11;;;;;;;3.10;2.20;;;22.20;63.30;;;;;;10387270;28;20030;-51
2022/07/02 05:45:12;;;;;;;3.70;2.35;;;22.20;62.60;;;;;;10367433;28;20037;-51
2022/07/02 05:50:13;;;;;;;5.00;2.10;;;22.20;62.90;;;;;;10379197;28;20026;-52
2022/07/02 05:55:14;;;;;;;5.53;2.58;;;22.20;62.70;;;;;;10379520;28;20044;-53
2022/07/02 06:00:15;;;;;;;4.10;1.83;;;22.20;62.60;;;;;;10376647;28;20053;-53
2022/07/02 06:10:35;;;;;;;;;;;22.20;62.90;;;;;;10378209;28;20773;-51
2022/07/02 06:15:35;;;;;;;6.20;2.78;;;22.20;62.80;;;;;;10392545;28;19925;-53
2022/07/02 06:20:36;;;;;;;7.20;2.42;;;22.20;62.70;;;;;;10368253;28;20041;-54
2022/07/02 06:25:37;;;;;;;4.05;2.13;;;22.10;62.80;;;;;;10396450;28;20116;-52
2022/07/02 06:30:38;;;;;;;10.30;2.55;;;22.10;62.80;;;;;;10401240;28;20022;-51
2022/07/02 06:35:40;;;;;;;5.38;2.30;;;22.20;62.90;;;;;;10390584;28;20049;-51
2022/07/02 06:40:41;;;;;;;3.97;1.80;;;22.20;62.60;;;;;;10383208;28;20030;-53
2022/07/02 06:45:42;;;;;;;7.00;2.13;;;22.20;62.70;;;;;;10404317;28;20668;-50
2022/07/02 06:50:42;;;;;;;10.95;2.63;;;22.20;62.70;;;;;;10411496;28;20091;-49
2022/07/02 06:55:43;;;;;;;6.40;2.22;;;22.20;62.70;;;;;;10404646;28;20120;-52
2022/07/02 07:00:44;;;;;;;9.77;2.53;;;22.20;63.00;;;;;;10391732;28;20024;-48
2022/07/02 07:05:46;;;;;;;12.15;2.55;;;22.30;63.10;;;;;;10388643;28;20029;-53
2022/07/02 07:10:47;;;;;;;9.63;2.25;;;22.30;62.90;;;;;;10412466;28;20563;-51
2022/07/02 07:15:48;;;;;;;7.97;2.17;;;22.30;62.90;;;;;;10395890;28;20128;-54
2022/07/02 07:20:50;;;;;;;9.40;3.08;;;22.30;61.80;;;;;;10389624;28;20061;-53
2022/07/02 07:25:51;;;;;;;5.15;2.30;;;22.20;61.40;;;;;;10372478;28;20121;-53
2022/07/02 07:30:53;;;;;;;3.80;1.65;;;22.20;60.90;;;;;;10385890;28;20088;-56
2022/07/02 07:35:53;;;;;;;5.95;2.15;;;22.30;61.10;;;;;;10371800;28;20058;-56
2022/07/02 07:40:55;;;;;;;6.95;2.03;;;22.30;61.00;;;;;;10376122;28;20029;-55
2022/07/02 07:45:56;;;;;;;7.38;1.90;;;22.30;60.50;;;;;;10405658;28;20046;-55
2022/07/02 07:50:57;;;;;;;5.68;1.70;;;22.30;61.10;;;;;;10406926;28;20057;-54
2022/07/02 07:55:59;;;;;;;5.75;1.83;;;22.30;60.70;;;;;;10375307;28;20038;-54
2022/07/02 08:01:00;;;;;;;6.65;2.33;;;22.30;60.20;;;;;;10379162;28;20420;-54
2022/07/02 08:06:01;;;;;;;2.95;1.75;;;22.30;59.80;;;;;;10390834;28;20595;-54
2022/07/02 08:11:03;;;;;;;3.08;1.15;;;22.30;60.40;;;;;;10369128;28;20091;-53
2022/07/02 08:16:04;;;;;;;5.03;1.67;;;22.40;60.00;;;;;;10368845;28;20033;-54
2022/07/02 08:21:05;;;;;;;4.82;1.83;;;22.30;59.80;;;;;;10387797;28;20037;-55
2022/07/02 08:26:06;;;;;;;3.97;1.63;;;22.40;60.30;;;;;;10410769;28;20149;-54
2022/07/02 08:31:07;;;;;;;4.15;1.65;;;22.40;60.10;;;;;;10391652;28;20030;-55
2022/07/02 08:36:08;;;;;;;3.05;1.42;;;22.40;60.40;;;;;;10408586;28;20049;-54
2022/07/02 08:41:12;;;;;;;4.30;1.73;;;22.40;60.40;;;;;;10384495;28;20037;-54
2022/07/02 08:46:13;;;;;;;3.60;1.30;;;22.40;60.30;;;;;;10395361;28;20041;-54
2022/07/02 08:51:14;;;;;;;3.20;1.30;;;22.40;59.60;;;;;;10399319;28;20057;-55
2022/07/02 08:56:17;;;;;;;2.58;1.20;;;22.40;59.70;;;;;;10408416;28;20073;-52
2022/07/02 09:01:18;;;;;;;2.58;0.85;;;22.40;59.10;;;;;;10380584;28;20030;-54
2022/07/02 09:06:21;;;;;;;3.65;1.15;;;22.40;60.00;;;;;;10366742;28;20046;-54
2022/07/02 09:11:23;;;;;;;2.75;1.13;;;22.40;60.10;;;;;;10366801;28;20041;-54
2022/07/02 09:16:24;;;;;;;4.40;1.73;;;22.40;60.20;;;;;;10371276;28;20099;-52
2022/07/02 09:21:25;;;;;;;2.70;1.48;;;22.40;60.30;;;;;;10384091;28;20029;-50
2022/07/02 09:26:26;;;;;;;3.25;1.30;;;22.40;60.20;;;;;;10376662;28;20508;-53
2022/07/02 09:31:31;;;;;;;2.60;1.00;;;22.50;60.10;;;;;;10381774;28;20037;-52
2022/07/02 09:36:36;;;;;;;3.08;1.30;;;22.40;58.40;;;;;;10407937;28;20376;-53
2022/07/02 09:41:43;;;;;;;3.53;1.65;;;22.50;57.40;;;;;;10391359;28;20654;-53
2022/07/02 09:46:44;;;;;;;4.15;1.23;;;22.50;57.90;;;;;;10394008;28;20500;-52
2022/07/02 09:51:53;;;;;;;3.13;1.38;;;22.50;58.20;;;;;;10402690;28;20116;-55
2022/07/02 09:56:57;;;;;;;2.25;1.25;;;22.50;58.10;;;;;;10365953;28;20030;-53
2022/07/02 10:01:58;;;;;;;3.03;1.27;;;22.50;57.50;;;;;;10394981;28;20107;-53
2022/07/02 10:07:00;;;;;;;2.97;1.17;;;22.50;57.50;;;;;;10405927;28;20029;-54
2022/07/02 10:12:01;;;;;;;3.08;1.25;;;22.50;57.60;;;;;;10387680;28;20072;-53
2022/07/02 10:17:03;;;;;;;4.72;1.45;;;22.50;57.20;;;;;;10366192;28;20137;-55
2022/07/02 10:22:06;;;;;;;4.55;1.30;;;22.50;57.20;;;;;;10386765;28;20472;-54
2022/07/02 10:27:08;;;;;;;9.10;1.40;;;22.50;57.60;;;;;;10374878;28;20038;-53
2022/07/02 10:32:29;;;;;;;3.03;1.75;;;22.60;57.00;;;;;;10398566;28;20084;-55
2022/07/02 10:37:32;;;;;;;3.22;1.20;;;22.50;56.80;;;;;;10410429;28;20046;-54
2022/07/02 10:42:42;;;;;;;3.10;1.10;;;22.50;57.70;;;;;;10409992;28;20487;-55
2022/07/02 10:48:13;;;;;;;4.05;1.13;;;22.50;57.70;;;;;;10397793;28;20060;-55
2022/07/02 10:53:22;;;;;;;4.47;0.98;;;22.50;58.00;;;;;;10383464;28;20053;-54
2022/07/02 10:58:26;;;;;;;3.92;1.60;;;22.50;58.80;;;;;;10372626;28;20175;-54
2022/07/02 11:03:27;;;;;;;3.53;1.17;;;22.50;58.00;;;;;;10374036;28;20076;-55
2022/07/02 11:08:48;;;;;;;4.07;1.55;;;22.60;58.00;;;;;;10372484;28;20044;-54
2022/07/02 11:13:59;;;;;;;3.15;1.10;;;22.60;57.60;;;;;;10384417;28;20358;-55
2022/07/02 11:19:00;;;;;;;2.10;0.90;;;22.60;58.10;;;;;;10372272;28;20107;-56
2022/07/02 11:24:01;;;;;;;2.20;1.17;;;22.60;58.50;;;;;;10382918;28;20116;-54
2022/07/02 11:29:04;;;;;;;4.13;1.10;;;22.60;58.30;;;;;;10410928;28;20168;-55
2022/07/02 11:34:05;;;;;;;1.90;1.00;;;22.60;58.60;;;;;;10407261;28;20078;-57
2022/07/02 11:39:11;;;;;;;2.58;1.20;;;22.60;58.70;;;;;;10409842;28;20044;-55
2022/07/02 11:44:28;;;;;;;1.75;0.82;;;22.60;58.50;;;;;;10369933;28;20104;-54
2022/07/02 11:49:34;;;;;;;3.22;0.90;;;22.60;58.90;;;;;;10401056;28;20380;-53
2022/07/02 11:54:41;;;;;;;3.28;1.25;;;22.60;58.90;;;;;;10396064;28;20056;-55
2022/07/02 11:59:51;;;;;;;1.90;0.95;;;22.60;58.70;;;;;;10402521;28;20030;-55
2022/07/02 12:04:51;;;;;;;2.40;1.13;;;22.60;58.20;;;;;;10403325;28;20033;-54
2022/07/02 12:09:53;;;;;;;2.22;1.05;;;22.60;58.50;;;;;;10396726;28;20033;-54
2022/07/02 12:14:54;;;;;;;2.58;1.33;;;22.60;59.00;;;;;;10410223;28;20040;-55
2022/07/02 12:19:56;;;;;;;1.23;0.90;;;22.70;58.80;;;;;;10409080;28;20036;-56
2022/07/02 12:24:57;;;;;;;6.10;1.00;;;22.70;58.80;;;;;;10394766;28;20038;-55
2022/07/02 12:29:58;;;;;;;2.85;1.05;;;22.70;58.30;;;;;;10370875;28;20033;-55
2022/07/02 12:35:07;;;;;;;2.90;1.05;;;22.70;58.80;;;;;;10387614;28;20045;-56
2022/07/02 12:40:13;;;;;;;1.48;0.80;;;22.70;59.00;;;;;;10398872;28;20053;-56
2022/07/02 12:45:42;;;;;;;1.48;1.10;;;22.70;59.00;;;;;;10375012;28;20068;-55
2022/07/02 12:50:46;;;;;;;3.50;1.08;;;22.70;58.50;;;;;;10411967;28;20049;-53
2022/07/02 12:55:57;;;;;;;1.85;0.80;;;22.70;59.00;;;;;;10369844;28;20040;-55
2022/07/02 13:00:59;;;;;;;1.20;0.75;;;22.70;58.80;;;;;;10379085;28;20385;-54
2022/07/02 13:06:01;;;;;;;2.55;0.88;;;22.70;59.00;;;;;;10374034;28;20068;-55
2022/07/02 13:11:04;;;;;;;1.50;0.95;;;22.70;59.40;;;;;;10375034;28;20040;-55
2022/07/02 13:16:04;;;;;;;1.27;0.70;;;22.70;59.20;;;;;;10394733;28;20038;-55
2022/07/02 13:21:05;;;;;;;1.75;1.08;;;22.70;58.80;;;;;;10386644;28;20026;-53
2022/07/02 13:26:06;;;;;;;1.73;1.00;;;22.70;58.90;;;;;;10367046;28;20408;-53
2022/07/02 13:31:06;;;;;;;2.50;0.88;;;22.70;58.70;;;;;;10396765;28;20610;-55
2022/07/02 13:36:07;;;;;;;1.92;0.60;;;22.80;58.90;;;;;;10397573;28;20180;-55
2022/07/02 13:41:08;;;;;;;2.03;0.82;;;22.70;58.70;;;;;;10367362;28;20101;-56
2022/07/02 13:46:09;;;;;;;1.85;0.70;;;22.70;58.90;;;;;;10381060;28;20034;-56
2022/07/02 13:51:10;;;;;;;2.47;1.52;;;22.80;59.00;;;;;;10372210;28;20032;-56
2022/07/02 13:56:10;;;;;;;2.15;0.73;;;22.80;58.80;;;;;;10399559;28;20041;-55
2022/07/02 14:01:11;;;;;;;2.03;1.05;;;22.80;58.70;;;;;;10401676;28;20035;-54
2022/07/02 14:06:12;;;;;;;1.90;1.00;;;22.80;58.60;;;;;;10400798;28;20113;-56
2022/07/02 14:11:13;;;;;;;1.80;1.25;;;22.70;58.00;;;;;;10414066;28;20037;-56
2022/07/02 14:16:13;;;;;;;1.48;0.90;;;22.70;58.50;;;;;;10391048;28;20042;-55
2022/07/02 14:21:15;;;;;;;1.45;0.82;;;22.70;58.10;;;;;;10375204;28;20168;-55
2022/07/02 14:26:16;;;;;;;1.27;1.00;;;22.70;58.20;;;;;;10385169;28;20056;-53
2022/07/02 14:31:18;;;;;;;1.10;0.70;;;22.70;57.90;;;;;;10409120;28;20041;-55
2022/07/02 14:36:19;;;;;;;0.45;0.38;;;22.70;58.00;;;;;;10407573;28;20489;-55
2022/07/02 14:41:31;;;;;;;1.08;0.70;;;22.70;58.00;;;;;;10394993;28;20041;-54
2022/07/02 14:46:32;;;;;;;1.13;0.77;;;22.70;57.70;;;;;;10388692;28;20038;-55
2022/07/02 14:51:33;;;;;;;2.60;0.70;;;22.70;58.00;;;;;;10394853;28;20029;-54
2022/07/02 14:56:34;;;;;;;1.05;0.80;;;22.70;58.50;;;;;;10392833;28;20592;-56
2022/07/02 15:01:35;;;;;;;1.40;1.05;;;22.70;59.10;;;;;;10373383;28;20105;-55
2022/07/02 15:06:36;;;;;;;1.77;1.05;;;22.70;59.30;;;;;;10371199;28;20444;-55
2022/07/02 15:11:37;;;;;;;0.93;0.85;;;22.60;59.30;;;;;;10372598;28;20092;-55
2022/07/02 15:16:38;;;;;;;0.63;0.50;;;22.60;59.00;;;;;;10373714;28;20042;-54
2022/07/02 15:21:45;;;;;;;0.93;0.68;;;22.60;59.50;;;;;;10372633;28;20018;-54
2022/07/02 15:26:46;;;;;;;1.17;0.60;;;22.60;59.50;;;;;;10384808;28;20180;-55
2022/07/02 15:31:47;;;;;;;1.58;0.80;;;22.60;59.10;;;;;;10389357;28;20397;-53
2022/07/02 15:36:52;;;;;;;2.00;1.00;;;22.60;59.40;;;;;;10412162;28;20048;-56
2022/07/02 15:41:53;;;;;;;1.42;0.77;;;22.60;58.40;;;;;;10411728;28;20036;-54
2022/07/02 15:46:54;;;;;;;0.82;0.73;;;22.60;58.60;;;;;;10411487;28;20364;-54
2022/07/02 15:51:58;;;;;;;0.65;0.60;;;22.60;58.50;;;;;;10398310;28;20053;-55
2022/07/02 15:57:09;;;;;;;1.77;0.95;;;22.60;58.60;;;;;;10370118;28;20041;-55
2022/07/02 16:02:11;;;;;;;1.95;0.80;;;22.60;58.20;;;;;;10369718;28;20580;-55
2022/07/02 16:07:12;;;;;;;0.75;0.50;;;22.60;58.50;;;;;;10375680;28;20041;-53
2022/07/02 16:12:15;;;;;;;1.30;0.85;;;22.60;58.40;;;;;;10410116;28;20029;-54
2022/07/02 16:17:18;;;;;;;1.92;0.75;;;22.60;59.30;;;;;;10388494;28;20401;-54
2022/07/02 16:22:20;;;;;;;2.00;0.77;;;22.60;58.70;;;;;;10369748;28;20030;-56
2022/07/02 16:27:21;;;;;;;1.70;0.95;;;22.60;58.80;;;;;;10368795;28;20041;-55
2022/07/02 16:32:36;;;;;;;1.00;0.80;;;22.60;59.40;;;;;;10391683;28;20026;-54
2022/07/02 16:37:42;;;;;;;1.10;0.98;;;22.70;59.30;;;;;;10391927;28;20511;-55
2022/07/02 16:42:43;;;;;;;1.20;0.80;;;22.60;59.00;;;;;;10409016;28;20041;-55
2022/07/02 16:47:46;;;;;;;3.10;1.17;;;22.70;59.20;;;;;;10393305;28;20397;-55
2022/07/02 16:53:05;;;;;;;1.67;0.60;;;22.60;59.40;;;;;;10405328;28;20037;-54
2022/07/02 16:58:08;;;;;;;0.80;0.57;;;22.60;59.40;;;;;;10387833;28;20112;-56
2022/07/02 17:03:09;;;;;;;0.73;0.60;;;22.60;59.20;;;;;;10367506;28;20026;-55
2022/07/02 17:08:10;;;;;;;0.85;0.55;;;22.70;59.50;;;;;;10406746;28;20041;-54
2022/07/02 17:13:11;;;;;;;0.73;0.47;;;22.70;59.50;;;;;;10409044;28;20116;-54
2022/07/02 17:18:12;;;;;;;0.85;0.60;;;22.70;59.70;;;;;;10367892;28;20036;-55
2022/07/02 17:23:13;;;;;;;0.82;0.65;;;22.60;59.60;;;;;;10367741;28;20382;-55
2022/07/02 17:28:13;;;;;;;0.73;0.63;;;22.60;59.70;;;;;;10366640;28;20516;-55
2022/07/02 17:33:14;;;;;;;1.10;0.80;;;22.60;59.90;;;;;;10396798;28;20036;-55
2022/07/02 17:38:17;;;;;;;2.80;0.60;;;22.60;60.00;;;;;;10388947;28;20080;-55
2022/07/02 17:43:19;;;;;;;2.63;0.95;;;22.60;59.70;;;;;;10366531;28;20482;-56
2022/07/02 17:48:20;;;;;;;1.67;0.98;;;22.70;60.70;;;;;;10397777;28;20033;-54
2022/07/02 17:53:21;;;;;;;1.08;0.63;;;22.70;60.00;;;;;;10399781;28;20427;-54
2022/07/02 17:58:22;;;;;;;0.63;0.60;;;22.70;60.10;;;;;;10393197;28;20079;-54
2022/07/02 18:03:23;;;;;;;1.45;0.75;;;22.70;60.00;;;;;;10392331;28;20380;-55
2022/07/02 18:08:23;;;;;;;2.15;0.70;;;22.70;60.00;;;;;;10407679;28;20064;-56
2022/07/02 18:13:24;;;;;;;1.65;0.70;;;22.70;60.10;;;;;;10406150;28;20151;-56
2022/07/02 18:18:25;;;;;;;1.20;0.63;;;22.70;60.20;;;;;;10405665;28;20033;-54
2022/07/02 18:23:25;;;;;;;0.40;0.40;;;22.70;60.20;;;;;;10405890;28;20666;-56
2022/07/02 18:28:26;;;;;;;0.93;0.60;;;22.60;60.20;;;;;;10377361;28;20588;-55
2022/07/02 18:33:27;;;;;;;1.13;0.70;;;22.60;60.20;;;;;;10397033;28;20060;-55
2022/07/02 18:38:28;;;;;;;0.82;0.60;;;22.70;60.30;;;;;;10403072;28;20046;-55
2022/07/02 18:43:29;;;;;;;0.73;0.60;;;22.70;60.40;;;;;;10390730;28;20551;-55
2022/07/02 18:48:29;;;;;;;0.90;0.50;;;22.70;60.40;;;;;;10396048;28;20029;-54
2022/07/02 18:53:30;;;;;;;0.80;0.65;;;22.60;60.40;;;;;;10404285;28;20034;-55
2022/07/02 18:58:31;;;;;;;1.08;0.63;;;22.60;60.40;;;;;;10377020;28;20034;-56
2022/07/02 19:03:32;;;;;;;1.25;0.60;;;22.60;60.50;;;;;;10384134;28;20792;-55
2022/07/02 19:08:33;;;;;;;0.63;0.60;;;22.60;60.50;;;;;;10385753;28;20095;-56
2022/07/02 19:13:35;;;;;;;0.85;0.50;;;22.60;60.50;;;;;;10411371;28;20087;-55
2022/07/02 19:18:35;;;;;;;0.50;0.50;;;22.60;60.50;;;;;;10413085;28;20565;-55
2022/07/02 19:23:38;;;;;;;0.77;0.40;;;22.60;60.50;;;;;;10410912;28;20029;-54
2022/07/02 19:33:58;;;;;;;2.03;0.95;;;22.70;60.60;;;;;;10383598;28;20436;-55
2022/07/02 19:38:59;;;;;;;0.90;0.63;;;22.70;60.70;;;;;;10384014;28;20121;-55
2022/07/02 19:44:00;;;;;;;1.17;0.93;;;22.70;60.70;;;;;;10408202;28;20104;-55
2022/07/02 19:49:03;;;;;;;0.77;0.60;;;22.70;61.30;;;;;;10393771;28;20033;-56
2022/07/02 19:54:04;;;;;;;2.08;0.57;;;22.70;60.70;;;;;;10382005;28;20551;-56
2022/07/02 19:59:06;;;;;;;0.77;0.52;;;22.70;60.60;;;;;;10372280;28;20112;-53
2022/07/02 20:04:06;;;;;;;1.58;0.65;;;22.70;60.60;;;;;;10405165;28;20026;-56
2022/07/02 20:09:07;;;;;;;1.95;0.70;;;22.70;60.60;;;;;;10411513;28;20123;-54
2022/07/02 20:14:08;;;;;;;0.70;0.57;;;22.70;60.70;;;;;;10385682;28;20041;-55
2022/07/02 20:19:09;;;;;;;0.63;0.63;;;22.70;60.80;;;;;;10369010;28;20041;-55
2022/07/02 20:24:10;;;;;;;1.80;0.98;;;22.70;60.80;;;;;;10370078;28;20079;-56
2022/07/02 20:29:11;;;;;;;0.95;0.77;;;22.70;60.90;;;;;;10376027;28;20041;-55
2022/07/02 20:34:12;;;;;;;1.75;0.60;;;22.70;60.90;;;;;;10403740;28;20073;-55
2022/07/02 20:39:13;;;;;;;2.03;0.50;;;22.70;60.90;;;;;;10409668;28;20461;-56
2022/07/02 20:44:13;;;;;;;0.95;0.68;;;22.70;61.00;;;;;;10384492;28;20444;-56
2022/07/02 20:49:14;;;;;;;0.85;0.60;;;22.70;61.00;;;;;;10390627;28;20098;-56
2022/07/02 20:54:16;;;;;;;2.03;0.80;;;22.70;61.00;;;;;;10369537;28;20061;-55
2022/07/02 20:59:17;;;;;;;0.90;0.40;;;22.70;61.00;;;;;;10364627;28;20030;-53
2022/07/02 21:04:17;;;;;;;1.85;0.88;;;22.70;61.00;;;;;;10368235;28;20861;-56
2022/07/02 21:09:18;;;;;;;1.13;0.60;;;22.70;61.00;;;;;;10350971;28;20038;-56
2022/07/02 21:14:19;;;;;;;1.17;0.75;;;22.70;61.10;;;;;;10385003;28;20104;-55
2022/07/02 21:19:20;;;;;;;3.28;1.30;;;22.70;61.10;;;;;;10394040;28;20044;-55
2022/07/02 21:24:21;;;;;;;1.20;0.80;;;22.70;61.10;;;;;;10406903;28;20516;-55
2022/07/02 21:29:21;;;;;;;0.60;0.60;;;22.70;61.10;;;;;;10404960;28;20132;-55
2022/07/02 21:34:22;;;;;;;1.48;1.38;;;22.70;61.10;;;;;;10406050;28;20052;-55
2022/07/02 21:39:23;;;;;;;1.17;0.50;;;22.70;61.10;;;;;;10407791;28;20119;-54
2022/07/02 21:44:24;;;;;;;0.63;0.50;;;22.70;61.10;;;;;;10407140;28;20040;-56
2022/07/02 21:49:24;;;;;;;1.10;0.88;;;22.70;61.10;;;;;;10417035;28;20028;-55
2022/07/02 21:54:25;;;;;;;0.75;0.75;;;22.70;61.20;;;;;;10395659;28;20037;-55
2022/07/02 21:59:26;;;;;;;2.35;0.68;;;22.60;61.20;;;;;;10408152;28;20034;-55
2022/07/02 22:04:26;;;;;;;1.58;1.10;;;22.60;61.20;;;;;;10388647;28;20026;-55
2022/07/02 22:09:27;;;;;;;2.45;0.80;;;22.60;61.20;;;;;;10367240;28;20469;-55
2022/07/02 22:14:28;;;;;;;0.85;0.50;;;22.60;61.30;;;;;;10370700;28;20061;-56
2022/07/02 22:19:29;;;;;;;1.02;0.80;;;22.70;61.30;;;;;;10374906;28;20045;-54
2022/07/02 22:24:30;;;;;;;0.85;0.80;;;22.70;61.30;;;;;;10387049;28;20729;-57
2022/07/02 22:29:31;;;;;;;1.23;0.70;;;22.60;61.30;;;;;;10383177;28;20048;-56
2022/07/02 22:34:31;;;;;;;1.20;0.88;;;22.60;61.30;;;;;;10412004;28;20033;-56
2022/07/02 22:39:32;;;;;;;1.17;0.70;;;22.60;61.30;;;;;;10414878;28;20050;-55
2022/07/02 22:44:33;;;;;;;1.00;0.73;;;22.60;61.30;;;;;;10400593;28;20028;-55
2022/07/02 22:49:33;;;;;;;1.35;1.00;;;22.60;61.30;;;;;;10422190;28;20040;-55
2022/07/02 22:54:34;;;;;;;1.17;1.02;;;22.60;61.30;;;;;;10372682;28;20481;-54
2022/07/02 22:59:35;;;;;;;1.73;0.90;;;22.60;61.40;;;;;;10374120;28;20489;-57
2022/07/02 23:04:35;;;;;;;1.75;0.95;;;22.60;61.30;;;;;;10373975;28;20030;-55
2022/07/02 23:09:37;;;;;;;1.08;0.75;;;22.60;61.20;;;;;;10373689;28;20358;-57
2022/07/02 23:14:37;;;;;;;1.45;0.65;;;22.60;61.50;;;;;;10373255;28;20108;-56
2022/07/02 23:19:38;;;;;;;0.95;0.85;;;22.60;61.30;;;;;;10371953;28;20037;-57
2022/07/02 23:24:39;;;;;;;0.88;0.80;;;22.60;61.40;;;;;;10372461;28;20148;-54
2022/07/02 23:29:39;;;;;;;1.27;0.85;;;22.60;61.30;;;;;;10373271;28;20084;-55
2022/07/02 23:34:40;;;;;;;0.85;0.75;;;22.60;61.30;;;;;;10385324;28;20544;-56
2022/07/02 23:39:41;;;;;;;1.00;0.80;;;22.60;61.30;;;;;;10412298;28;20108;-54
2022/07/02 23:44:42;;;;;;;1.83;0.90;;;22.60;61.30;;;;;;10382450;28;20034;-56
2022/07/02 23:49:42;;;;;;;0.75;0.75;;;22.60;61.30;;;;;;10391833;28;20365;-55
2022/07/02 23:54:43;;;;;;;1.05;0.73;;;22.60;61.30;;;;;;10370352;28;20114;-55
2022/07/02 23:59:44;;;;;;;3.45;1.00;;;22.60;61.30;;;;;;10371361;28;20057;-55
